createdAt,value
2022-08-30T00:01:14.070Z,27.52
2022-08-30T00:03:45.507Z,27.53
2022-08-30T00:06:12.970Z,27.55
2022-08-30T00:08:40.982Z,27.54
2022-08-30T00:11:09.928Z,27.58
2022-08-30T00:13:40.242Z,27.60
2022-08-30T00:16:07.238Z,27.53
2022-08-30T00:18:34.646Z,27.56
2022-08-30T00:21:01.265Z,27.57
2022-08-30T00:23:27.835Z,27.59
2022-08-30T00:25:54.270Z,27.60
2022-08-30T00:28:20.825Z,27.58
2022-08-30T00:30:47.305Z,27.56
2022-08-30T00:33:14.216Z,27.56
2022-08-30T00:35:41.417Z,27.54
2022-08-30T00:38:08.424Z,27.48
2022-08-30T00:40:35.207Z,27.39
2022-08-30T00:43:05.614Z,27.33
2022-08-30T00:45:42.548Z,27.28
2022-08-30T00:48:09.162Z,27.18
2022-08-30T00:50:44.493Z,27.24
2022-08-30T00:53:13.722Z,27.21
2022-08-30T00:55:42.077Z,27.24
2022-08-30T00:58:13.293Z,27.20
2022-08-30T01:00:39.859Z,27.15
2022-08-30T01:03:08.441Z,27.08
2022-08-30T01:05:38.607Z,27.08
2022-08-30T01:08:05.866Z,27.11
2022-08-30T01:10:34.375Z,27.10
2022-08-30T01:13:00.945Z,27.09
2022-08-30T01:15:27.410Z,27.01
2022-08-30T01:17:54.070Z,26.99
2022-08-30T01:20:26.409Z,26.97
2022-08-30T01:22:52.884Z,27.03
2022-08-30T01:25:21.222Z,26.97
2022-08-30T01:27:51.224Z,27.04
2022-08-30T01:30:17.836Z,26.95
2022-08-30T01:32:46.150Z,26.93
2022-08-30T01:35:17.527Z,26.91
2022-08-30T01:37:44.615Z,26.87
2022-08-30T01:40:12.433Z,26.88
2022-08-30T01:42:39.147Z,26.91
2022-08-30T01:45:06.567Z,26.92
2022-08-30T01:47:33.160Z,26.90
2022-08-30T01:49:59.948Z,26.84
2022-08-30T01:52:27.125Z,26.82
2022-08-30T01:54:53.789Z,26.80
2022-08-30T01:57:22.207Z,26.77
2022-08-30T01:59:50.211Z,26.69
2022-08-30T02:02:18.455Z,26.65
2022-08-30T02:04:45.058Z,26.65
2022-08-30T02:07:11.638Z,26.67
2022-08-30T02:09:38.044Z,26.62
2022-08-30T02:12:07.394Z,26.66
2022-08-30T02:14:37.395Z,26.60
2022-08-30T02:17:07.782Z,26.55
2022-08-30T02:19:34.413Z,26.53
2022-08-30T02:22:00.990Z,26.55
2022-08-30T02:24:27.413Z,26.59
2022-08-30T02:26:54.202Z,26.62
2022-08-30T02:29:21.512Z,26.63
2022-08-30T02:31:48.190Z,26.59
2022-08-30T02:34:15.293Z,26.60
2022-08-30T02:36:41.965Z,26.55
2022-08-30T02:39:09.358Z,26.52
2022-08-30T02:41:35.974Z,26.57
2022-08-30T02:44:02.457Z,26.50
2022-08-30T02:46:31.068Z,26.49
2022-08-30T02:49:13.154Z,26.53
2022-08-30T02:51:47.853Z,26.51
2022-08-30T02:54:20.106Z,26.57
2022-08-30T02:56:47.941Z,26.58
2022-08-30T02:59:15.331Z,26.58
2022-08-30T03:01:42.026Z,26.50
2022-08-30T03:04:09.318Z,26.47
2022-08-30T03:06:35.912Z,26.49
2022-08-30T03:09:02.417Z,26.52
2022-08-30T03:11:29.823Z,26.54
2022-08-30T03:13:56.644Z,26.48
2022-08-30T03:16:23.295Z,26.46
2022-08-30T03:18:49.929Z,26.40
2022-08-30T03:21:16.392Z,26.38
2022-08-30T03:23:43.012Z,26.33
2022-08-30T03:26:12.602Z,26.32
2022-08-30T03:28:39.339Z,26.32
2022-08-30T03:31:06.112Z,26.32
2022-08-30T03:33:32.693Z,26.24
2022-08-30T03:35:59.157Z,26.29
2022-08-30T03:38:26.148Z,26.30
2022-08-30T03:40:52.776Z,26.28
2022-08-30T03:43:19.504Z,26.25
2022-08-30T03:45:45.985Z,26.27
2022-08-30T03:48:13.048Z,26.21
2022-08-30T03:50:40.557Z,26.16
2022-08-30T03:53:07.305Z,26.11
2022-08-30T03:55:34.168Z,26.08
2022-08-30T03:58:00.746Z,26.09
2022-08-30T04:00:27.193Z,26.05
2022-08-30T04:02:53.819Z,26.02
2022-08-30T04:05:20.339Z,26.06
2022-08-30T04:07:46.942Z,26.03
2022-08-30T04:10:13.397Z,26.10
2022-08-30T04:12:39.985Z,26.11
2022-08-30T04:15:07.724Z,26.08
2022-08-30T04:17:34.131Z,26.05
2022-08-30T04:20:00.732Z,26.04
2022-08-30T04:22:27.136Z,26.08
2022-08-30T04:24:53.800Z,26.10
2022-08-30T04:27:20.523Z,26.09
2022-08-30T04:29:47.706Z,26.13
2022-08-30T04:32:14.718Z,26.15
2022-08-30T04:34:41.325Z,26.19
2022-08-30T04:37:09.969Z,26.19
2022-08-30T04:39:37.241Z,26.17
2022-08-30T04:42:04.178Z,26.17
2022-08-30T04:44:32.123Z,26.24
2022-08-30T04:46:59.261Z,26.27
2022-08-30T04:49:25.879Z,26.34
2022-08-30T04:51:52.283Z,26.37
2022-08-30T04:54:21.131Z,26.42
2022-08-30T04:56:47.761Z,26.49
2022-08-30T04:59:14.181Z,26.58
2022-08-30T05:01:45.356Z,26.62
2022-08-30T05:04:13.190Z,26.69
2022-08-30T05:06:39.826Z,26.84
2022-08-30T05:09:06.409Z,26.86
2022-08-30T05:11:33.027Z,26.85
2022-08-30T05:13:59.610Z,26.92
2022-08-30T05:16:28.996Z,27.04
2022-08-30T05:18:55.789Z,27.04
2022-08-30T05:21:26.601Z,27.19
2022-08-30T05:23:54.779Z,27.31
2022-08-30T05:26:31.895Z,27.43
2022-08-30T05:28:58.484Z,27.51
2022-08-30T05:31:30.150Z,27.55
2022-08-30T05:33:57.053Z,27.56
2022-08-30T05:36:25.537Z,27.51
2022-08-30T05:38:52.651Z,27.60
2022-08-30T05:41:20.739Z,27.70
2022-08-30T05:43:48.038Z,27.90
2022-08-30T05:46:19.856Z,28.02
2022-08-30T05:48:47.006Z,28.15
2022-08-30T05:51:18.547Z,28.25
2022-08-30T05:53:45.717Z,28.21
2022-08-30T05:56:13.462Z,28.14
2022-08-30T05:58:40.130Z,27.99
2022-08-30T06:01:06.944Z,28.09
2022-08-30T06:03:33.643Z,28.12
2022-08-30T06:06:00.881Z,28.19
2022-08-30T06:08:27.513Z,28.13
2022-08-30T06:10:54.118Z,28.24
2022-08-30T06:13:20.754Z,28.29
2022-08-30T06:15:47.436Z,28.25
2022-08-30T06:18:14.195Z,28.37
2022-08-30T06:20:42.381Z,28.41
2022-08-30T06:23:09.973Z,28.23
2022-08-30T06:25:41.987Z,28.34
2022-08-30T06:28:09.412Z,28.56
2022-08-30T06:30:36.691Z,28.75
2022-08-30T06:33:03.371Z,28.93
2022-08-30T06:35:32.662Z,29.09
2022-08-30T06:38:02.020Z,29.36
2022-08-30T06:40:28.722Z,29.44
2022-08-30T06:42:55.682Z,30.00
2022-08-30T06:45:22.395Z,31.01
2022-08-30T06:47:49.262Z,31.61
2022-08-30T06:50:16.818Z,32.35
2022-08-30T06:52:44.469Z,32.76
2022-08-30T06:55:12.083Z,33.23
2022-08-30T06:57:38.990Z,33.60
2022-08-30T07:00:07.407Z,33.75
2022-08-30T07:02:34.117Z,33.87
2022-08-30T07:05:02.254Z,34.09
2022-08-30T07:07:28.871Z,34.28
2022-08-30T07:09:56.182Z,34.45
2022-08-30T07:12:23.084Z,35.07
2022-08-30T07:14:49.743Z,35.33
2022-08-30T07:17:35.051Z,35.15
2022-08-30T07:20:02.692Z,34.16
2022-08-30T07:22:29.301Z,33.32
2022-08-30T07:24:55.919Z,32.90
2022-08-30T07:27:22.612Z,32.95
2022-08-30T07:29:49.885Z,32.92
2022-08-30T07:32:16.636Z,32.96
2022-08-30T07:34:43.277Z,33.17
2022-08-30T07:37:09.917Z,32.94
2022-08-30T07:39:47.849Z,32.75
2022-08-30T07:42:15.038Z,32.56
2022-08-30T07:44:41.640Z,32.70
2022-08-30T07:47:08.284Z,32.68
2022-08-30T07:49:34.890Z,32.38
2022-08-30T07:52:01.635Z,32.17
2022-08-30T07:54:28.517Z,32.18
2022-08-30T07:56:55.917Z,32.05
2022-08-30T07:59:23.362Z,32.23
2022-08-30T08:01:50.122Z,32.22
2022-08-30T08:04:19.473Z,32.30
2022-08-30T08:06:46.071Z,32.33
2022-08-30T08:09:12.700Z,32.46
2022-08-30T08:11:41.426Z,33.18
2022-08-30T08:14:08.215Z,34.17
2022-08-30T08:16:35.750Z,34.76
2022-08-30T08:19:02.837Z,35.10
2022-08-30T08:21:29.476Z,35.12
2022-08-30T08:23:56.127Z,34.79
2022-08-30T08:26:22.756Z,34.67
2022-08-30T08:28:49.428Z,34.60
2022-08-30T08:31:31.428Z,34.55
2022-08-30T08:36:30.333Z,33.91
2022-08-30T08:38:56.972Z,33.72
2022-08-30T08:41:46.651Z,33.48
2022-08-30T08:44:51.153Z,33.38
2022-08-30T08:48:00.426Z,32.94
2022-08-30T08:50:31.079Z,32.97
2022-08-30T08:53:45.525Z,33.32
2022-08-30T08:59:45.673Z,34.59
2022-08-30T09:02:44.301Z,35.25
2022-08-30T09:05:13.692Z,35.99
2022-08-30T09:07:42.847Z,36.08
2022-08-30T09:10:09.473Z,36.58
2022-08-30T09:12:36.072Z,36.88
2022-08-30T09:15:10.593Z,37.36
2022-08-30T09:18:01.374Z,38.12
2022-08-30T09:20:43.292Z,38.94
2022-08-30T09:23:17.418Z,39.35
2022-08-30T09:26:00.663Z,39.04
2022-08-30T09:28:32.744Z,39.25
2022-08-30T09:30:59.263Z,38.41
2022-08-30T09:33:25.915Z,38.11
2022-08-30T09:35:54.186Z,38.27
2022-08-30T09:38:29.466Z,37.70
2022-08-30T09:40:58.288Z,36.63
2022-08-30T09:43:25.944Z,36.77
2022-08-30T09:46:00.796Z,36.49
2022-08-30T09:48:44.906Z,36.55
2022-08-30T09:51:14.998Z,36.72
2022-08-30T09:54:31.103Z,37.15
2022-08-30T09:57:03.782Z,37.00
2022-08-30T09:59:57.759Z,37.06
2022-08-30T10:02:47.125Z,37.25
2022-08-30T10:05:50.739Z,38.45
2022-08-30T10:08:25.806Z,38.50
2022-08-30T10:11:01.386Z,39.14
2022-08-30T10:13:47.621Z,39.81
2022-08-30T10:16:24.974Z,40.20
2022-08-30T10:18:58.684Z,40.13
2022-08-30T10:21:31.057Z,39.91
2022-08-30T10:24:08.722Z,39.88
2022-08-30T10:26:38.571Z,39.64
2022-08-30T10:29:31.963Z,39.49
2022-08-30T10:32:10.971Z,38.61
2022-08-30T10:34:45.376Z,37.67
2022-08-30T10:37:13.662Z,37.20
2022-08-30T10:39:48.904Z,36.72
2022-08-30T10:42:26.681Z,36.50
2022-08-30T10:45:02.125Z,36.26
2022-08-30T10:47:37.311Z,36.67
2022-08-30T10:50:07.111Z,37.35
2022-08-30T10:52:35.639Z,37.51
2022-08-30T10:55:10.436Z,37.93
2022-08-30T10:57:37.354Z,38.24
2022-08-30T11:00:10.921Z,38.64
2022-08-30T11:02:46.634Z,38.57
2022-08-30T11:05:28.892Z,38.60
2022-08-30T11:08:22.990Z,38.71
2022-08-30T11:11:05.213Z,38.83
2022-08-30T11:13:32.335Z,38.62
2022-08-30T11:16:03.280Z,38.75
2022-08-30T11:18:34.758Z,38.88
2022-08-30T11:21:37.671Z,38.55
2022-08-30T11:24:21.915Z,38.04
2022-08-30T11:26:48.598Z,37.89
2022-08-30T11:29:27.994Z,37.97
2022-08-30T11:31:55.060Z,37.96
2022-08-30T11:34:49.456Z,37.62
2022-08-30T11:37:36.028Z,37.66
2022-08-30T11:40:15.590Z,37.46
2022-08-30T11:42:45.577Z,37.08
2022-08-30T11:45:25.102Z,37.05
2022-08-30T11:47:56.281Z,37.31
2022-08-30T11:50:29.299Z,37.28
2022-08-30T11:53:35.023Z,37.13
2022-08-30T11:56:21.340Z,36.34
2022-08-30T11:58:57.135Z,36.20
2022-08-30T12:01:50.927Z,36.40
2022-08-30T12:04:25.249Z,36.11
2022-08-30T12:06:57.126Z,36.05
2022-08-30T12:09:23.627Z,36.05
2022-08-30T12:11:58.052Z,36.37
2022-08-30T12:14:49.008Z,36.60
2022-08-30T12:18:03.646Z,36.48
2022-08-30T12:20:42.122Z,36.65
2022-08-30T12:23:23.894Z,36.83
2022-08-30T12:25:50.749Z,36.85
2022-08-30T12:28:22.722Z,36.82
2022-08-30T12:30:49.594Z,36.72
2022-08-30T12:33:29.140Z,36.60
2022-08-30T12:35:58.276Z,36.78
2022-08-30T12:38:27.630Z,37.06
2022-08-30T12:40:57.880Z,36.96
2022-08-30T12:43:40.195Z,36.48
2022-08-30T12:46:10.851Z,36.52
2022-08-30T12:48:39.085Z,36.30
2022-08-30T12:51:07.130Z,36.53
2022-08-30T12:53:36.210Z,36.53
2022-08-30T12:56:04.814Z,36.28
2022-08-30T12:58:35.603Z,36.55
2022-08-30T13:01:20.781Z,36.39
2022-08-30T13:04:18.923Z,36.28
2022-08-30T13:06:53.974Z,36.05
2022-08-30T13:09:23.906Z,36.01
2022-08-30T13:11:53.804Z,36.02
2022-08-30T13:14:33.976Z,35.74
2022-08-30T13:17:25.636Z,35.50
2022-08-30T13:20:01.298Z,35.29
2022-08-30T13:22:27.909Z,35.04
2022-08-30T13:24:55.419Z,35.07
2022-08-30T13:27:22.243Z,34.99
2022-08-30T13:29:49.236Z,34.87
2022-08-30T13:32:16.179Z,34.67
2022-08-30T13:34:42.939Z,34.59
2022-08-30T13:40:13.041Z,34.44
2022-08-30T13:42:42.799Z,34.39
2022-08-30T13:47:59.583Z,34.21
2022-08-30T13:50:26.490Z,34.19
2022-08-30T13:52:54.199Z,34.29
2022-08-30T13:55:20.788Z,34.20
2022-08-30T13:57:56.054Z,34.11
2022-08-30T14:00:25.106Z,34.01
2022-08-30T14:02:57.663Z,33.86
2022-08-30T14:06:04.645Z,33.79
2022-08-30T14:11:12.623Z,33.78
2022-08-30T14:14:14.578Z,33.91
2022-08-30T14:16:27.157Z,33.92
2022-08-30T14:18:54.133Z,34.00
2022-08-30T14:21:21.303Z,33.78
2022-08-30T14:23:50.891Z,33.85
2022-08-30T14:26:18.993Z,33.72
2022-08-30T14:28:45.599Z,33.67
2022-08-30T14:31:12.815Z,33.58
2022-08-30T14:33:39.951Z,33.54
2022-08-30T14:36:12.490Z,33.42
2022-08-30T14:38:42.603Z,33.38
2022-08-30T14:41:10.269Z,33.33
2022-08-30T14:43:37.802Z,33.31
2022-08-30T14:46:05.641Z,33.29
2022-08-30T14:48:32.278Z,33.18
2022-08-30T14:50:58.898Z,33.16
2022-08-30T14:53:25.525Z,33.16
2022-08-30T14:55:52.111Z,33.16
2022-08-30T14:58:19.153Z,33.15
2022-08-30T15:00:52.620Z,33.15
2022-08-30T15:03:19.430Z,33.12
2022-08-30T15:05:50.615Z,33.10
2022-08-30T15:08:19.778Z,33.06
2022-08-30T15:10:47.494Z,33.04
2022-08-30T15:13:14.307Z,33.03
2022-08-30T15:15:42.128Z,32.99
2022-08-30T15:18:08.892Z,32.96
2022-08-30T15:20:35.630Z,32.93
2022-08-30T15:23:02.267Z,32.89
2022-08-30T15:25:28.966Z,32.88
2022-08-30T15:27:55.607Z,32.87
2022-08-30T15:30:22.995Z,32.81
2022-08-30T15:32:49.617Z,32.82
2022-08-30T15:35:16.294Z,32.80
2022-08-30T15:37:43.150Z,32.80
2022-08-30T15:40:10.367Z,32.78
2022-08-30T15:42:37.068Z,32.78
2022-08-30T15:45:03.843Z,32.80
2022-08-30T15:47:30.591Z,32.75
2022-08-30T15:50:03.024Z,32.77
2022-08-30T15:52:32.964Z,32.86
2022-08-30T15:54:59.885Z,32.89
2022-08-30T15:57:26.627Z,32.91
2022-08-30T15:59:54.684Z,32.91
2022-08-30T16:02:21.827Z,32.90
2022-08-30T16:04:54.547Z,32.90
2022-08-30T16:07:21.294Z,32.87
2022-08-30T16:09:50.311Z,32.81
2022-08-30T16:12:23.718Z,32.77
2022-08-30T16:14:56.531Z,32.74
2022-08-30T16:17:27.708Z,32.72
2022-08-30T16:19:58.483Z,32.67
2022-08-30T16:22:29.610Z,32.72
2022-08-30T16:24:59.216Z,32.72
2022-08-30T16:27:26.188Z,32.71
2022-08-30T16:29:52.908Z,32.66
2022-08-30T16:32:23.209Z,32.60
2022-08-30T16:34:50.495Z,32.57
2022-08-30T16:37:19.377Z,32.55
2022-08-30T16:39:47.334Z,32.52
2022-08-30T16:42:15.111Z,32.49
2022-08-30T16:44:48.329Z,32.50
2022-08-30T16:47:16.436Z,32.50
2022-08-30T16:49:46.130Z,32.47
2022-08-30T16:52:12.795Z,32.42
2022-08-30T16:54:39.511Z,32.39
2022-08-30T16:57:06.619Z,32.36
2022-08-30T16:59:36.394Z,32.31
2022-08-30T17:02:11.735Z,32.29
2022-08-30T17:04:41.050Z,32.29
2022-08-30T17:07:07.900Z,32.21
2022-08-30T17:09:40.973Z,32.20
2022-08-30T17:12:13.156Z,32.19
2022-08-30T17:14:42.966Z,32.12
2022-08-30T17:17:14.079Z,32.09
2022-08-30T17:19:43.060Z,32.03
2022-08-30T17:22:12.773Z,31.97
2022-08-30T17:24:39.873Z,31.92
2022-08-30T17:27:07.115Z,31.88
2022-08-30T17:29:36.876Z,31.86
2022-08-30T17:32:07.649Z,31.78
2022-08-30T17:34:35.697Z,31.73
2022-08-30T17:37:02.593Z,31.69
2022-08-30T17:39:30.544Z,31.63
2022-08-30T17:41:57.980Z,31.61
2022-08-30T17:44:28.650Z,31.54
2022-08-30T17:46:56.085Z,31.46
2022-08-30T17:49:23.378Z,31.40
2022-08-30T17:51:54.224Z,31.36
2022-08-30T17:54:24.335Z,31.31
2022-08-30T17:56:52.279Z,31.25
2022-08-30T17:59:19.252Z,31.21
2022-08-30T18:01:51.708Z,31.19
2022-08-30T18:04:19.764Z,31.12
2022-08-30T18:06:47.457Z,31.03
2022-08-30T18:09:14.293Z,30.98
2022-08-30T18:11:40.899Z,30.96
2022-08-30T18:14:10.822Z,30.91
2022-08-30T18:16:38.085Z,30.86
2022-08-30T18:19:05.093Z,30.84
2022-08-30T18:21:36.509Z,30.81
2022-08-30T18:24:03.346Z,30.75
2022-08-30T18:26:31.915Z,30.71
2022-08-30T18:28:59.273Z,30.67
2022-08-30T18:31:27.004Z,30.64
2022-08-30T18:33:54.965Z,30.60
2022-08-30T18:36:21.819Z,30.57
2022-08-30T18:38:48.963Z,30.55
2022-08-30T18:41:16.604Z,30.50
2022-08-30T18:43:43.545Z,30.50
2022-08-30T18:46:14.081Z,30.48
2022-08-30T18:48:41.221Z,30.44
2022-08-30T18:51:12.227Z,30.38
2022-08-30T18:53:38.830Z,30.36
2022-08-30T18:56:07.805Z,30.34
2022-08-30T18:58:34.683Z,30.28
2022-08-30T19:01:03.494Z,30.24
2022-08-30T19:03:33.646Z,30.20
2022-08-30T19:06:07.339Z,30.14
2022-08-30T19:08:34.248Z,30.11
2022-08-30T19:11:05.074Z,30.07
2022-08-30T19:13:34.518Z,30.03
2022-08-30T19:16:04.185Z,29.97
2022-08-30T19:18:30.814Z,29.93
2022-08-30T19:20:57.447Z,29.89
2022-08-30T19:23:26.985Z,29.87
2022-08-30T19:25:54.202Z,29.86
2022-08-30T19:28:21.167Z,29.83
2022-08-30T19:30:47.791Z,29.79
2022-08-30T19:33:14.429Z,29.77
2022-08-30T19:35:41.096Z,29.74
2022-08-30T19:38:07.714Z,29.71
2022-08-30T19:40:34.489Z,29.66
2022-08-30T19:43:01.330Z,29.58
2022-08-30T19:45:27.926Z,29.55
2022-08-30T19:47:54.852Z,29.52
2022-08-30T19:50:21.741Z,29.47
2022-08-30T19:52:53.689Z,29.43
2022-08-30T19:55:23.719Z,29.36
2022-08-30T19:57:55.029Z,29.32
2022-08-30T20:00:23.426Z,29.28
2022-08-30T20:02:50.811Z,29.26
2022-08-30T20:05:18.256Z,29.23
2022-08-30T20:07:45.035Z,29.21
2022-08-30T20:10:13.635Z,29.19
2022-08-30T20:12:45.245Z,29.18
2022-08-30T20:15:14.650Z,29.12
2022-08-30T20:18:02.445Z,29.09
2022-08-30T20:20:30.441Z,29.08
2022-08-30T20:22:57.108Z,29.03
2022-08-30T20:25:23.919Z,28.98
2022-08-30T20:27:50.555Z,28.95
2022-08-30T20:30:17.428Z,28.89
2022-08-30T20:32:46.674Z,28.84
2022-08-30T20:35:16.437Z,28.79
2022-08-30T20:37:43.418Z,28.76
2022-08-30T20:40:15.010Z,28.72
2022-08-30T20:42:45.424Z,28.65
2022-08-30T20:45:15.155Z,28.61
2022-08-30T20:47:42.935Z,28.54
2022-08-30T20:50:13.838Z,28.51
2022-08-30T20:52:40.838Z,28.48
2022-08-30T20:55:08.276Z,28.43
2022-08-30T20:57:34.969Z,28.42
2022-08-30T21:00:01.765Z,28.32
2022-08-30T21:02:28.460Z,28.31
2022-08-30T21:04:55.186Z,28.28
2022-08-30T21:07:21.910Z,28.32
2022-08-30T21:09:48.615Z,28.31
2022-08-30T21:12:18.090Z,28.31
2022-08-30T21:14:44.693Z,28.32
2022-08-30T21:17:13.701Z,28.32
2022-08-30T21:19:43.861Z,28.26
2022-08-30T21:22:11.015Z,28.17
2022-08-30T21:24:37.658Z,28.12
2022-08-30T21:27:04.369Z,28.10
2022-08-30T21:29:32.986Z,28.06
2022-08-30T21:31:59.599Z,28.04
2022-08-30T21:34:26.229Z,28.01
2022-08-30T21:36:52.867Z,27.97
2022-08-30T21:39:23.952Z,27.95
2022-08-30T21:41:52.263Z,27.88
2022-08-30T21:44:20.945Z,27.82
2022-08-30T21:46:47.772Z,27.77
2022-08-30T21:49:15.972Z,27.76
2022-08-30T21:51:43.492Z,27.76
2022-08-30T21:54:10.986Z,27.76
2022-08-30T21:56:38.951Z,27.75
2022-08-30T21:59:05.966Z,27.76
2022-08-30T22:01:32.982Z,27.78
2022-08-30T22:04:00.890Z,27.77
2022-08-30T22:06:30.880Z,27.77
2022-08-30T22:08:58.354Z,27.71
2022-08-30T22:11:25.722Z,27.72
2022-08-30T22:13:53.527Z,27.73
2022-08-30T22:16:20.190Z,27.75
2022-08-30T22:18:46.913Z,27.72
2022-08-30T22:21:15.640Z,27.64
2022-08-30T22:23:42.288Z,27.65
2022-08-30T22:26:09.576Z,27.62
2022-08-30T22:28:36.213Z,27.59
2022-08-30T22:31:04.193Z,27.53
2022-08-30T22:33:30.824Z,27.55
2022-08-30T22:35:57.438Z,27.52
2022-08-30T22:38:24.038Z,27.51
2022-08-30T22:40:51.444Z,27.51
2022-08-30T22:43:18.231Z,27.51
2022-08-30T22:45:45.335Z,27.47
2022-08-30T22:48:12.027Z,27.52
2022-08-30T22:50:38.704Z,27.53
2022-08-30T22:53:05.479Z,27.55
2022-08-30T22:55:32.089Z,27.51
2022-08-30T22:57:58.695Z,27.52
2022-08-30T23:00:25.286Z,27.51
2022-08-30T23:02:52.702Z,27.52
2022-08-30T23:05:20.733Z,27.48
2022-08-30T23:07:47.446Z,27.45
2022-08-30T23:10:14.137Z,27.39
2022-08-30T23:12:40.953Z,27.27
2022-08-30T23:15:09.090Z,27.17
2022-08-30T23:17:39.430Z,27.19
2022-08-30T23:20:07.426Z,27.18
2022-08-30T23:22:34.047Z,27.11
2022-08-30T23:25:19.442Z,27.06
2022-08-30T23:28:05.245Z,26.99
2022-08-30T23:30:50.909Z,26.94
2022-08-30T23:33:36.165Z,26.95
2022-08-30T23:36:28.813Z,26.94
2022-08-30T23:39:14.043Z,26.88
2022-08-30T23:41:59.581Z,26.88
2022-08-30T23:44:44.680Z,26.86
2022-08-30T23:47:29.715Z,26.78
2022-08-30T23:50:17.230Z,26.85
2022-08-30T23:53:02.576Z,26.86
2022-08-30T23:55:47.924Z,26.85
2022-08-30T23:58:33.391Z,26.86
